createdAt,value
2019-05-01T00:02:01.329Z,101541.47
2019-05-01T00:04:37.937Z,101539.18
2019-05-01T00:07:07.720Z,101535.30
2019-05-01T00:09:34.082Z,101538.88
2019-05-01T00:11:59.654Z,101536.13
2019-05-01T00:14:25.526Z,101538.11
2019-05-01T00:16:51.038Z,101531.45
2019-05-01T00:19:16.817Z,101534.67
2019-05-01T00:21:42.298Z,101527.22
2019-05-01T00:24:07.773Z,101528.30
2019-05-01T00:26:33.249Z,101520.86
2019-05-01T00:28:58.734Z,101513.14
2019-05-01T00:31:24.145Z,101507.34
2019-05-01T00:33:49.587Z,101513.52
2019-05-01T00:36:15.056Z,101516.77
2019-05-01T00:38:40.533Z,101512.48
2019-05-01T00:41:06.001Z,101504.83
2019-05-01T00:43:31.750Z,101505.53
2019-05-01T00:45:57.332Z,101508.59
2019-05-01T00:48:22.787Z,101507.95
2019-05-01T00:50:51.449Z,101502.78
2019-05-01T00:53:17.017Z,101507.97
2019-05-01T00:55:51.837Z,101510.73
2019-05-01T00:58:23.729Z,101513.05
2019-05-01T01:01:08.341Z,101511.67
2019-05-01T01:03:34.250Z,101510.12
2019-05-01T01:05:59.575Z,101502.50
2019-05-01T01:08:25.049Z,101511.73
2019-05-01T01:10:50.740Z,101504.30
2019-05-01T01:13:16.195Z,101492.78
2019-05-01T01:15:41.575Z,101497.53
2019-05-01T01:18:07.022Z,101493.98
2019-05-01T01:20:32.483Z,101493.80
2019-05-01T01:22:58.043Z,101493.38
2019-05-01T01:25:23.509Z,101489.18
2019-05-01T01:27:48.965Z,101492.91
2019-05-01T01:30:15.026Z,101492.48
2019-05-01T01:32:40.458Z,101491.92
2019-05-01T01:35:06.643Z,101481.79
2019-05-01T01:37:32.101Z,101488.59
2019-05-01T01:39:57.951Z,101485.20
2019-05-01T01:42:24.120Z,101488.57
2019-05-01T01:44:56.200Z,101483.17
2019-05-01T01:47:21.644Z,101492.10
2019-05-01T01:49:47.096Z,101488.00
2019-05-01T01:52:13.661Z,101480.01
2019-05-01T01:54:39.395Z,101477.61
2019-05-01T01:57:05.076Z,101469.50
2019-05-01T01:59:31.559Z,101470.27
2019-05-01T02:02:15.982Z,101468.36
2019-05-01T02:04:52.706Z,101471.67
2019-05-01T02:07:18.290Z,101473.30
2019-05-01T02:09:43.795Z,101466.97
2019-05-01T02:12:09.279Z,101466.14
2019-05-01T02:14:34.855Z,101464.84
2019-05-01T02:17:00.626Z,101465.83
2019-05-01T02:19:26.384Z,101458.13
2019-05-01T02:21:51.873Z,101455.55
2019-05-01T02:24:17.305Z,101447.55
2019-05-01T02:26:46.344Z,101455.06
2019-05-01T02:29:29.779Z,101459.73
2019-05-01T02:31:57.471Z,101449.77
2019-05-01T02:34:25.923Z,101447.60
2019-05-01T02:36:54.756Z,101444.22
2019-05-01T02:39:24.895Z,101440.63
2019-05-01T02:41:55.143Z,101446.84
2019-05-01T02:44:31.979Z,101441.16
2019-05-01T02:47:01.964Z,101449.91
2019-05-01T02:49:43.792Z,101439.73
2019-05-01T02:52:13.335Z,101438.44
2019-05-01T02:54:40.640Z,101434.83
2019-05-01T02:57:14.659Z,101441.43
2019-05-01T02:59:43.980Z,101442.64
2019-05-01T03:02:10.897Z,101436.73
2019-05-01T03:04:37.096Z,101432.61
2019-05-01T03:07:04.221Z,101436.73
2019-05-01T03:09:30.772Z,101432.82
2019-05-01T03:11:58.922Z,101430.56
2019-05-01T03:14:28.903Z,101438.78
2019-05-01T03:16:59.048Z,101436.59
2019-05-01T03:19:44.852Z,101438.00
2019-05-01T03:22:24.827Z,101440.37
2019-05-01T03:24:50.283Z,101432.28
2019-05-01T03:27:16.650Z,101425.96
2019-05-01T03:29:42.583Z,101427.69
2019-05-01T03:32:19.050Z,101431.50
2019-05-01T03:34:35.232Z,101433.52
2019-05-01T03:37:01.273Z,101423.91
2019-05-01T03:39:27.049Z,101426.13
2019-05-01T03:41:53.405Z,101427.89
2019-05-01T03:44:20.151Z,101435.57
2019-05-01T03:46:45.810Z,101435.57
2019-05-01T03:49:12.150Z,101430.20
2019-05-01T03:51:37.976Z,101441.08
2019-05-01T03:54:04.386Z,101433.31
2019-05-01T03:56:30.527Z,101432.50
2019-05-01T03:58:56.177Z,101426.84
2019-05-01T04:01:42.230Z,101426.70
2019-05-01T04:04:11.618Z,101423.61
2019-05-01T04:06:39.493Z,101428.11
2019-05-01T04:09:05.912Z,101427.95
2019-05-01T04:11:31.467Z,101428.81
2019-05-01T04:13:58.253Z,101422.95
2019-05-01T04:16:24.234Z,101433.28
2019-05-01T04:18:50.087Z,101425.02
2019-05-01T04:21:15.906Z,101421.94
2019-05-01T04:23:43.620Z,101429.15
2019-05-01T04:26:10.009Z,101430.88
2019-05-01T04:29:03.930Z,101425.22
2019-05-01T04:31:37.769Z,101420.21
2019-05-01T04:34:07.425Z,101418.48
2019-05-01T04:36:37.879Z,101424.69
2019-05-01T04:39:04.798Z,101419.54
2019-05-01T04:41:30.464Z,101424.48
2019-05-01T04:43:56.006Z,101423.46
2019-05-01T04:46:22.444Z,101423.97
2019-05-01T04:48:47.895Z,101428.11
2019-05-01T04:51:13.671Z,101432.41
2019-05-01T04:53:39.113Z,101432.77
2019-05-01T04:56:05.271Z,101430.52
2019-05-01T04:58:31.407Z,101433.60
2019-05-01T05:00:57.571Z,101429.64
2019-05-01T05:03:25.113Z,101432.75
2019-05-01T05:05:51.170Z,101433.97
2019-05-01T05:08:17.964Z,101431.02
2019-05-01T05:10:43.639Z,101430.72
2019-05-01T05:13:29.424Z,101429.83
2019-05-01T05:16:19.519Z,101429.64
2019-05-01T05:18:45.269Z,101438.08
2019-05-01T05:21:12.342Z,101435.16
2019-05-01T05:23:38.953Z,101436.70
2019-05-01T05:26:04.822Z,101436.20
2019-05-01T05:28:31.503Z,101434.14
2019-05-01T05:30:58.181Z,101434.95
2019-05-01T05:33:25.058Z,101434.77
2019-05-01T05:35:52.843Z,101443.23
2019-05-01T05:38:33.508Z,101439.47
2019-05-01T05:41:01.260Z,101435.67
2019-05-01T05:43:26.703Z,101440.66
2019-05-01T05:45:52.248Z,101443.23
2019-05-01T05:48:17.988Z,101438.75
2019-05-01T05:50:58.577Z,101437.05
2019-05-01T05:53:29.950Z,101448.41
2019-05-01T05:55:59.901Z,101448.06
2019-05-01T05:58:37.028Z,101448.40
2019-05-01T06:01:13.270Z,101445.64
2019-05-01T06:04:07.115Z,101454.37
2019-05-01T06:06:47.970Z,101451.32
2019-05-01T06:09:16.036Z,101448.24
2019-05-01T06:12:17.045Z,101447.70
2019-05-01T06:14:51.346Z,101445.31
2019-05-01T06:17:39.060Z,101453.91
2019-05-01T06:20:29.850Z,101448.25
2019-05-01T06:23:20.727Z,101442.21
2019-05-01T06:25:54.191Z,101441.81
2019-05-01T06:28:19.854Z,101444.36
2019-05-01T06:30:47.004Z,101445.56
2019-05-01T06:33:13.225Z,101437.38
2019-05-01T06:35:39.417Z,101438.25
2019-05-01T06:38:14.553Z,101445.42
2019-05-01T06:40:44.677Z,101444.22
2019-05-01T06:43:25.222Z,101448.73
2019-05-01T06:45:53.382Z,101455.23
2019-05-01T06:48:20.184Z,101449.37
2019-05-01T06:51:17.893Z,101450.92
2019-05-01T06:53:41.581Z,101461.53
2019-05-01T06:56:07.080Z,101457.40
2019-05-01T06:58:32.927Z,101456.58
2019-05-01T07:00:58.406Z,101452.47
2019-05-01T07:03:24.095Z,101460.86
2019-05-01T07:05:54.412Z,101458.04
2019-05-01T07:08:24.430Z,101464.95
2019-05-01T07:10:46.607Z,101461.94
2019-05-01T07:13:12.156Z,101468.77
2019-05-01T07:15:37.851Z,101465.31
2019-05-01T07:18:04.659Z,101461.53
2019-05-01T07:20:51.379Z,101465.91
2019-05-01T07:23:19.850Z,101466.69
2019-05-01T07:25:45.445Z,101466.97
2019-05-01T07:28:11.675Z,101461.39
2019-05-01T07:30:54.924Z,101461.11
2019-05-01T07:33:17.933Z,101460.27
2019-05-01T07:35:45.730Z,101451.60
2019-05-01T07:38:11.544Z,101460.51
2019-05-01T07:40:37.709Z,101452.14
2019-05-01T07:43:10.969Z,101457.60
2019-05-01T07:45:54.457Z,101455.95
2019-05-01T07:48:31.319Z,101458.45
2019-05-01T07:50:56.769Z,101459.23
2019-05-01T07:53:23.729Z,101447.41
2019-05-01T07:55:52.705Z,101454.03
2019-05-01T07:58:18.212Z,101457.98
2019-05-01T08:00:52.145Z,101450.80
2019-05-01T08:03:17.622Z,101452.95
2019-05-01T08:05:45.455Z,101454.61
2019-05-01T08:08:10.693Z,101462.31
2019-05-01T08:10:36.130Z,101450.94
2019-05-01T08:13:01.976Z,101467.33
2019-05-01T08:15:32.395Z,101455.77
2019-05-01T08:17:57.152Z,101454.14
2019-05-01T08:20:31.584Z,101460.54
2019-05-01T08:22:57.434Z,101463.19
2019-05-01T08:25:22.811Z,101461.25
2019-05-01T08:27:58.081Z,101458.28
2019-05-01T08:30:42.638Z,101459.59
2019-05-01T08:33:49.813Z,101461.87
2019-05-01T08:36:13.495Z,101468.31
2019-05-01T08:38:39.017Z,101462.58
2019-05-01T08:41:04.534Z,101464.92
2019-05-01T08:43:30.461Z,101465.48
2019-05-01T08:46:21.075Z,101459.66
2019-05-01T08:48:54.320Z,101465.81
2019-05-01T08:51:19.784Z,101464.39
2019-05-01T08:53:45.353Z,101464.93
2019-05-01T08:56:11.077Z,101466.58
2019-05-01T08:58:37.177Z,101464.95
2019-05-01T09:01:05.124Z,101461.09
2019-05-01T09:03:31.045Z,101462.88
2019-05-01T09:05:57.365Z,101459.27
2019-05-01T09:08:27.077Z,101464.45
2019-05-01T09:10:54.780Z,101460.94
2019-05-01T09:13:18.965Z,101457.94
2019-05-01T09:15:48.281Z,101456.68
2019-05-01T09:18:12.293Z,101455.66
2019-05-01T09:20:39.523Z,101452.66
2019-05-01T09:23:05.160Z,101457.22
2019-05-01T09:25:38.082Z,101458.41
2019-05-01T09:28:22.478Z,101456.83
2019-05-01T09:31:01.552Z,101462.12
2019-05-01T09:33:21.101Z,101455.95
2019-05-01T09:35:46.793Z,101454.22
2019-05-01T09:38:12.297Z,101456.35
2019-05-01T09:40:37.756Z,101445.70
2019-05-01T09:43:03.135Z,101448.70
2019-05-01T09:45:28.699Z,101444.81
2019-05-01T09:47:54.246Z,101440.00
2019-05-01T09:50:19.671Z,101441.14
2019-05-01T09:53:01.521Z,101442.05
2019-05-01T09:55:45.870Z,101440.73
2019-05-01T09:58:11.472Z,101445.82
2019-05-01T10:00:37.274Z,101446.86
2019-05-01T10:03:02.722Z,101440.30
2019-05-01T10:05:29.234Z,101432.10
2019-05-01T10:07:54.941Z,101435.57
2019-05-01T10:10:20.572Z,101432.42
2019-05-01T10:12:46.912Z,101435.91
2019-05-01T10:15:13.624Z,101422.56
2019-05-01T10:17:39.820Z,101417.81
2019-05-01T10:20:05.924Z,101423.19
2019-05-01T10:22:32.930Z,101417.84
2019-05-01T10:24:58.746Z,101424.58
2019-05-01T10:27:30.966Z,101420.81
2019-05-01T10:30:13.222Z,101414.58
2019-05-01T10:32:45.146Z,101414.31
2019-05-01T10:35:26.863Z,101414.39
2019-05-01T10:37:52.493Z,101413.25
2019-05-01T10:40:18.338Z,101409.45
2019-05-01T10:42:44.068Z,101408.70
2019-05-01T10:45:09.883Z,101414.58
2019-05-01T10:47:35.475Z,101405.25
2019-05-01T10:50:01.201Z,101400.18
2019-05-01T10:52:26.748Z,101401.09
2019-05-01T10:54:52.312Z,101402.97
2019-05-01T10:57:17.950Z,101397.53
2019-05-01T10:59:43.556Z,101395.78
2019-05-01T11:02:10.991Z,101395.58
2019-05-01T11:04:37.041Z,101396.29
2019-05-01T11:07:02.607Z,101387.56
2019-05-01T11:09:28.167Z,101388.66
2019-05-01T11:11:53.706Z,101389.23
2019-05-01T11:14:19.390Z,101386.92
2019-05-01T11:16:44.964Z,101374.05
2019-05-01T11:19:10.506Z,101381.13
2019-05-01T11:21:36.077Z,101377.52
2019-05-01T11:24:02.050Z,101376.64
2019-05-01T11:26:27.716Z,101380.38
2019-05-01T11:28:53.331Z,101371.80
2019-05-01T11:31:23.077Z,101374.53
2019-05-01T11:34:08.342Z,101369.92
2019-05-01T11:36:47.532Z,101369.58
2019-05-01T11:39:26.534Z,101367.28
2019-05-01T11:41:57.538Z,101358.61
2019-05-01T11:44:23.564Z,101356.41
2019-05-01T11:46:49.169Z,101358.56
2019-05-01T11:49:14.719Z,101358.81
2019-05-01T11:51:40.320Z,101356.44
2019-05-01T11:54:06.126Z,101354.47
2019-05-01T11:56:34.633Z,101360.70
2019-05-01T11:59:00.227Z,101354.46
2019-05-01T12:01:26.928Z,101361.36
2019-05-01T12:03:52.416Z,101352.22
2019-05-01T12:06:22.892Z,101354.77
2019-05-01T12:08:45.287Z,101350.23
2019-05-01T12:11:12.246Z,101345.42
2019-05-01T12:13:43.970Z,101342.63
2019-05-01T12:16:12.720Z,101345.33
2019-05-01T12:18:38.113Z,101342.88
2019-05-01T12:21:03.586Z,101338.47
2019-05-01T12:23:29.584Z,101339.46
2019-05-01T12:25:55.153Z,101335.98
2019-05-01T12:28:20.736Z,101342.68
2019-05-01T12:30:46.246Z,101337.75
2019-05-01T12:33:11.864Z,101332.55
2019-05-01T12:35:37.374Z,101331.96
2019-05-01T12:38:04.099Z,101328.54
2019-05-01T12:40:29.631Z,101317.98
2019-05-01T12:42:55.231Z,101320.66
2019-05-01T12:45:21.455Z,101318.37
2019-05-01T12:47:50.012Z,101316.74
2019-05-01T12:50:15.632Z,101314.68
2019-05-01T12:52:58.661Z,101312.19
2019-05-01T12:55:58.200Z,101307.31
2019-05-01T12:58:23.782Z,101306.02
2019-05-01T13:00:52.157Z,101304.58
2019-05-01T13:03:17.662Z,101298.92
2019-05-01T13:05:43.192Z,101297.44
2019-05-01T13:08:08.676Z,101301.33
2019-05-01T13:10:34.197Z,101293.23
2019-05-01T13:12:59.711Z,101284.27
2019-05-01T13:15:25.235Z,101287.03
2019-05-01T13:17:51.394Z,101283.69
2019-05-01T13:20:17.254Z,101279.90
2019-05-01T13:22:42.988Z,101279.80
2019-05-01T13:25:08.785Z,101282.97
2019-05-01T13:27:41.808Z,101274.03
2019-05-01T13:30:27.136Z,101268.22
2019-05-01T13:32:53.645Z,101257.14
2019-05-01T13:35:19.544Z,101258.87
2019-05-01T13:37:45.082Z,101255.59
2019-05-01T13:40:12.433Z,101254.56
2019-05-01T13:42:38.176Z,101249.53
2019-05-01T13:45:04.179Z,101243.23
2019-05-01T13:47:29.726Z,101241.72
2019-05-01T13:49:55.306Z,101240.77
2019-05-01T13:52:20.764Z,101233.56
2019-05-01T13:54:46.267Z,101228.31
2019-05-01T13:57:12.040Z,101234.73
2019-05-01T13:59:37.572Z,101227.61
2019-05-01T14:02:03.149Z,101224.89
2019-05-01T14:04:30.475Z,101222.42
2019-05-01T14:06:59.184Z,101202.10
2019-05-01T14:09:29.307Z,101189.95
2019-05-01T14:11:55.007Z,101195.95
2019-05-01T14:14:20.466Z,101191.45
2019-05-01T14:16:45.960Z,101185.57
2019-05-01T14:19:11.429Z,101189.58
2019-05-01T14:21:42.379Z,101184.36
2019-05-01T14:24:31.032Z,101181.62
2019-05-01T14:26:56.503Z,101177.84
2019-05-01T14:29:21.939Z,101177.26
2019-05-01T14:31:47.392Z,101180.69
2019-05-01T14:34:12.912Z,101175.03
2019-05-01T14:36:38.277Z,101172.25
2019-05-01T14:39:05.776Z,101173.10
2019-05-01T14:41:36.146Z,101173.75
2019-05-01T14:44:01.741Z,101167.56
2019-05-01T14:46:27.223Z,101163.59
2019-05-01T14:48:52.873Z,101157.19
2019-05-01T14:51:21.451Z,101150.88
2019-05-01T14:53:45.615Z,101153.22
2019-05-01T14:56:11.551Z,101145.09
2019-05-01T14:58:37.085Z,101136.81
2019-05-01T15:01:02.592Z,101141.30
2019-05-01T15:03:28.150Z,101136.27
2019-05-01T15:05:53.649Z,101132.41
2019-05-01T15:08:19.191Z,101129.45
2019-05-01T15:10:44.639Z,101133.33
2019-05-01T15:13:28.252Z,101130.75
2019-05-01T15:16:00.037Z,101125.31
2019-05-01T15:18:33.180Z,101122.31
2019-05-01T15:20:58.840Z,101121.51
2019-05-01T15:23:24.278Z,101119.46
2019-05-01T15:25:50.004Z,101113.36
2019-05-01T15:28:15.685Z,101110.66
2019-05-01T15:30:41.167Z,101112.48
2019-05-01T15:33:06.623Z,101112.48
2019-05-01T15:35:35.254Z,101108.30
2019-05-01T15:38:00.677Z,101107.17
2019-05-01T15:40:31.969Z,101103.75
2019-05-01T15:43:01.888Z,101105.45
2019-05-01T15:45:27.387Z,101102.75
2019-05-01T15:47:52.720Z,101096.29
2019-05-01T15:50:18.424Z,101090.58
2019-05-01T15:52:43.929Z,101094.14
2019-05-01T15:55:09.928Z,101093.92
2019-05-01T15:57:35.501Z,101089.09
2019-05-01T16:00:01.079Z,101086.02
2019-05-01T16:02:33.394Z,101085.57
2019-05-01T16:05:00.840Z,101089.05
2019-05-01T16:07:40.113Z,101089.39
2019-05-01T16:10:09.129Z,101082.44
2019-05-01T16:12:39.835Z,101079.89
2019-05-01T16:15:09.402Z,101077.69
2019-05-01T16:17:34.952Z,101077.48
2019-05-01T16:20:01.069Z,101078.23
2019-05-01T16:22:26.806Z,101072.10
2019-05-01T16:24:52.999Z,101069.14
2019-05-01T16:27:19.318Z,101068.92
2019-05-01T16:29:44.815Z,101068.30
2019-05-01T16:32:11.058Z,101058.58
2019-05-01T16:34:37.252Z,101060.77
2019-05-01T16:37:03.056Z,101058.13
2019-05-01T16:39:50.259Z,101063.39
2019-05-01T16:42:15.753Z,101060.15
2019-05-01T16:44:41.240Z,101055.28
2019-05-01T16:47:06.703Z,101052.22
2019-05-01T16:49:32.193Z,101047.78
2019-05-01T16:51:57.689Z,101045.62
2019-05-01T16:54:23.267Z,101046.92
2019-05-01T16:56:48.779Z,101041.45
2019-05-01T16:59:14.288Z,101033.08
2019-05-01T17:01:58.421Z,101033.35
2019-05-01T17:04:32.620Z,101032.55
2019-05-01T17:07:16.884Z,101029.38
2019-05-01T17:10:10.207Z,101027.61
2019-05-01T17:12:42.746Z,101021.73
2019-05-01T17:15:10.663Z,101015.34
2019-05-01T17:17:36.362Z,101015.61
2019-05-01T17:20:01.903Z,101017.89
2019-05-01T17:22:27.386Z,101013.66
2019-05-01T17:24:52.804Z,101012.71
2019-05-01T17:27:18.462Z,101009.89
2019-05-01T17:29:43.887Z,101014.56
2019-05-01T17:32:11.229Z,101006.71
2019-05-01T17:34:36.986Z,101005.56
2019-05-01T17:37:02.703Z,101001.98
2019-05-01T17:39:28.361Z,101009.73
2019-05-01T17:41:57.558Z,101002.71
2019-05-01T17:44:25.362Z,101008.16
2019-05-01T17:46:48.725Z,101003.88
2019-05-01T17:49:14.609Z,101007.55
2019-05-01T17:51:42.765Z,101008.12
2019-05-01T17:54:08.095Z,101007.36
2019-05-01T17:56:33.731Z,101002.77
2019-05-01T17:58:59.926Z,101005.09
2019-05-01T18:01:43.625Z,101000.55
2019-05-01T18:04:24.124Z,101004.04
2019-05-01T18:06:51.090Z,101001.55
2019-05-01T18:09:17.883Z,101001.37
2019-05-01T18:11:47.264Z,101001.19
2019-05-01T18:14:11.621Z,100992.16
2019-05-01T18:16:37.313Z,101000.31
2019-05-01T18:19:03.246Z,101004.45
2019-05-01T18:21:29.568Z,100996.13
2019-05-01T18:24:14.269Z,100998.67
2019-05-01T18:26:48.791Z,100999.95
2019-05-01T18:29:23.924Z,101000.58
2019-05-01T18:31:50.245Z,100995.47
2019-05-01T18:34:16.074Z,100992.48
2019-05-01T18:36:47.893Z,100998.64
2019-05-01T18:39:22.075Z,100990.72
2019-05-01T18:41:50.915Z,100997.77
2019-05-01T18:44:17.012Z,100997.28
2019-05-01T18:46:43.252Z,100993.88
2019-05-01T18:49:09.163Z,100993.14
2019-05-01T18:51:36.122Z,100994.97
2019-05-01T18:54:02.527Z,100992.22
2019-05-01T18:56:28.630Z,100997.02
2019-05-01T18:58:55.706Z,101000.50
2019-05-01T19:01:21.904Z,100994.30
2019-05-01T19:03:48.151Z,101002.99
2019-05-01T19:06:14.525Z,100991.12
2019-05-01T19:08:40.785Z,100994.69
2019-05-01T19:11:12.673Z,100990.45
2019-05-01T19:13:36.137Z,100994.50
2019-05-01T19:16:03.294Z,100991.20
2019-05-01T19:18:30.925Z,101000.81
2019-05-01T19:20:59.710Z,100991.02
2019-05-01T19:23:27.740Z,100994.53
2019-05-01T19:25:56.363Z,100994.62
2019-05-01T19:28:23.128Z,100997.84
2019-05-01T19:30:49.546Z,101001.34
2019-05-01T19:33:15.697Z,101000.70
2019-05-01T19:35:44.362Z,101004.87
2019-05-01T19:38:11.211Z,101002.19
2019-05-01T19:40:39.017Z,101001.22
2019-05-01T19:43:06.289Z,101004.31
2019-05-01T19:45:32.655Z,101006.80
2019-05-01T19:47:59.555Z,101005.06
2019-05-01T19:50:26.426Z,100997.52
2019-05-01T19:52:52.751Z,101003.05
2019-05-01T19:55:18.850Z,101010.28
2019-05-01T19:57:45.287Z,101009.23
2019-05-01T20:00:13.937Z,101011.46
2019-05-01T20:02:40.707Z,101009.95
2019-05-01T20:05:10.973Z,101003.36
2019-05-01T20:07:36.754Z,101003.44
2019-05-01T20:10:03.217Z,101002.81
2019-05-01T20:12:29.951Z,101001.28
2019-05-01T20:14:56.264Z,101001.21
2019-05-01T20:17:22.981Z,101003.97
2019-05-01T20:19:49.592Z,101000.44
2019-05-01T20:22:16.212Z,101008.00
2019-05-01T20:24:44.342Z,101010.34
2019-05-01T20:27:10.578Z,101007.25
2019-05-01T20:29:36.963Z,101008.62
2019-05-01T20:32:03.400Z,101003.21
2019-05-01T20:34:29.545Z,101004.59
2019-05-01T20:36:56.084Z,101008.53
2019-05-01T20:39:23.760Z,101002.87
2019-05-01T20:41:54.039Z,101002.16
2019-05-01T20:44:23.953Z,100995.95
2019-05-01T20:46:49.511Z,100992.43
2019-05-01T20:49:15.667Z,100995.72
2019-05-01T20:51:41.659Z,101002.68
2019-05-01T20:54:07.533Z,101002.77
2019-05-01T20:56:42.056Z,101001.44
2019-05-01T20:59:08.068Z,101003.88
2019-05-01T21:01:34.027Z,101000.42
2019-05-01T21:04:19.374Z,101004.74
2019-05-01T21:06:43.750Z,100999.55
2019-05-01T21:09:16.239Z,100999.80
2019-05-01T21:11:47.507Z,100997.80
2019-05-01T21:14:21.986Z,100999.19
2019-05-01T21:16:39.679Z,100994.77
2019-05-01T21:19:05.406Z,100997.64
2019-05-01T21:21:31.033Z,100994.84
2019-05-01T21:23:56.809Z,100995.98
2019-05-01T21:26:23.411Z,100998.68
2019-05-01T21:28:49.013Z,100996.66
2019-05-01T21:31:14.572Z,100996.14
2019-05-01T21:33:40.841Z,100993.28
2019-05-01T21:36:08.589Z,100995.91
2019-05-01T21:38:34.200Z,100993.45
2019-05-01T21:40:59.651Z,100992.98
2019-05-01T21:43:27.939Z,100993.70
2019-05-01T21:45:53.467Z,100993.25
2019-05-01T21:48:19.064Z,100986.94
2019-05-01T21:50:44.492Z,100991.19
2019-05-01T21:53:10.115Z,100984.52
2019-05-01T21:55:36.249Z,100985.86
2019-05-01T21:58:01.827Z,100988.99
2019-05-01T22:00:29.690Z,100987.16
2019-05-01T22:02:55.225Z,100984.66
2019-05-01T22:05:20.806Z,100985.97
2019-05-01T22:07:46.473Z,100986.88
2019-05-01T22:10:12.605Z,100986.08
2019-05-01T22:12:38.115Z,100988.34
2019-05-01T22:15:11.027Z,100988.39
2019-05-01T22:17:53.415Z,100984.74
2019-05-01T22:20:23.724Z,100986.19
2019-05-01T22:22:53.890Z,100986.92
2019-05-01T22:25:26.835Z,100991.86
2019-05-01T22:27:58.185Z,100988.84
2019-05-01T22:30:30.530Z,100983.72
2019-05-01T22:32:56.635Z,100979.33
2019-05-01T22:35:24.715Z,100975.63
2019-05-01T22:37:50.244Z,100974.75
2019-05-01T22:40:17.975Z,100976.09
2019-05-01T22:42:43.526Z,100977.41
2019-05-01T22:45:11.212Z,100970.70
2019-05-01T22:47:36.742Z,100970.22
2019-05-01T22:50:02.218Z,100961.19
2019-05-01T22:52:27.698Z,100966.56
2019-05-01T22:54:53.156Z,100964.05
2019-05-01T22:57:20.506Z,100965.23
2019-05-01T22:59:46.052Z,100955.72
2019-05-01T23:02:24.246Z,100956.78
2019-05-01T23:04:52.066Z,100955.97
2019-05-01T23:07:18.620Z,100954.48
2019-05-01T23:09:44.189Z,100950.07
2019-05-01T23:12:09.694Z,100956.06
2019-05-01T23:14:35.601Z,100953.09
2019-05-01T23:17:10.379Z,100952.69
2019-05-01T23:19:35.853Z,100957.48
2019-05-01T23:22:01.595Z,100953.62
2019-05-01T23:24:27.073Z,100954.12
2019-05-01T23:26:53.061Z,100959.37
2019-05-01T23:29:18.641Z,100957.08
2019-05-01T23:31:44.278Z,100953.13
2019-05-01T23:34:09.805Z,100949.30
2019-05-01T23:36:35.612Z,100942.37
2019-05-01T23:39:01.174Z,100947.86
2019-05-01T23:41:44.578Z,100946.58
2019-05-01T23:43:58.210Z,100936.59
2019-05-01T23:46:21.776Z,100940.00
2019-05-01T23:48:47.251Z,100936.38
2019-05-01T23:51:12.788Z,100937.84
2019-05-01T23:53:38.227Z,100938.22
2019-05-01T23:56:03.691Z,100934.50
2019-05-01T23:58:29.410Z,100924.47
